createdAt,value
2017-11-16T00:00:08.158Z,0
2017-11-16T00:00:48.574Z,0
2017-11-16T00:01:29.037Z,0
2017-11-16T00:02:09.407Z,0
2017-11-16T00:02:49.983Z,0
2017-11-16T00:03:30.475Z,0
2017-11-16T00:04:10.989Z,0
2017-11-16T00:04:51.285Z,0
2017-11-16T00:05:31.718Z,0
2017-11-16T00:06:12.065Z,0
2017-11-16T00:06:52.548Z,0
2017-11-16T00:07:32.916Z,0
2017-11-16T00:08:13.398Z,0
2017-11-16T00:08:53.806Z,0
2017-11-16T00:09:34.249Z,0
2017-11-16T00:10:14.601Z,0
2017-11-16T00:10:55.010Z,0
2017-11-16T00:11:35.383Z,0
2017-11-16T00:12:15.795Z,0
2017-11-16T00:12:56.194Z,0
2017-11-16T00:13:36.713Z,0
2017-11-16T00:14:17.083Z,0
2017-11-16T00:14:57.429Z,0
2017-11-16T00:15:37.888Z,0
2017-11-16T00:16:18.312Z,0
2017-11-16T00:16:58.756Z,0
2017-11-16T00:17:39.187Z,0
2017-11-16T00:18:19.622Z,0
2017-11-16T00:19:00.139Z,0
2017-11-16T00:19:40.539Z,0
2017-11-16T00:20:20.996Z,0
2017-11-16T00:21:01.304Z,0
2017-11-16T00:21:41.697Z,0
2017-11-16T00:22:22.106Z,0
2017-11-16T00:23:02.515Z,0
2017-11-16T00:23:43.014Z,0
2017-11-16T00:24:23.364Z,0
2017-11-16T00:25:03.920Z,0
2017-11-16T00:25:44.378Z,0
2017-11-16T00:26:24.751Z,0
2017-11-16T00:27:05.176Z,0
2017-11-16T00:27:45.623Z,0
2017-11-16T00:28:26.013Z,0
2017-11-16T00:29:06.403Z,0
2017-11-16T00:29:46.799Z,0
2017-11-16T00:30:27.301Z,0
2017-11-16T00:31:07.627Z,0
2017-11-16T00:31:48.182Z,0
2017-11-16T00:32:28.647Z,0
2017-11-16T00:33:09.029Z,0
2017-11-16T00:33:52.114Z,0
2017-11-16T00:34:32.450Z,0
2017-11-16T00:35:12.900Z,0
2017-11-16T00:35:53.391Z,0
2017-11-16T00:36:33.811Z,0
2017-11-16T00:37:14.232Z,0
2017-11-16T00:37:54.697Z,0
2017-11-16T00:38:34.993Z,0
2017-11-16T00:39:15.455Z,0
2017-11-16T00:39:55.918Z,0
2017-11-16T00:40:36.262Z,0
2017-11-16T00:41:16.762Z,0
2017-11-16T00:41:57.148Z,0
2017-11-16T00:42:37.576Z,0
2017-11-16T00:43:18.009Z,0
2017-11-16T00:43:58.439Z,0
2017-11-16T00:44:38.894Z,0
2017-11-16T00:45:19.215Z,0
2017-11-16T00:45:59.666Z,0
2017-11-16T00:46:40.134Z,0
2017-11-16T00:47:20.563Z,0
2017-11-16T00:48:01.144Z,0
2017-11-16T00:48:41.401Z,0
2017-11-16T00:49:21.968Z,0
2017-11-16T00:50:02.362Z,0
2017-11-16T00:50:42.767Z,0
2017-11-16T00:51:23.159Z,0
2017-11-16T00:52:03.616Z,0
2017-11-16T00:52:43.957Z,0
2017-11-16T00:53:24.381Z,0
2017-11-16T00:54:04.747Z,0
2017-11-16T00:54:45.162Z,0
2017-11-16T00:55:25.655Z,0
2017-11-16T00:56:05.987Z,0
2017-11-16T00:56:46.370Z,0
2017-11-16T00:57:27.217Z,0
2017-11-16T00:58:07.239Z,0
2017-11-16T00:58:47.645Z,0
2017-11-16T00:59:28.296Z,0
2017-11-16T01:00:08.654Z,0
2017-11-16T01:00:49.111Z,0
2017-11-16T01:01:29.575Z,0
2017-11-16T01:02:09.978Z,0
2017-11-16T01:02:50.320Z,0
2017-11-16T01:03:30.759Z,0
2017-11-16T01:04:11.188Z,0
2017-11-16T01:04:51.540Z,0
2017-11-16T01:05:32.604Z,0
2017-11-16T01:06:13.017Z,0
2017-11-16T01:06:53.458Z,0
2017-11-16T01:07:33.824Z,0
2017-11-16T01:08:14.407Z,0
2017-11-16T01:08:54.817Z,0
2017-11-16T01:09:35.184Z,0
2017-11-16T01:10:15.636Z,0
2017-11-16T01:10:56.005Z,0
2017-11-16T01:11:36.813Z,0
2017-11-16T01:12:17.234Z,0
2017-11-16T01:12:57.619Z,0
2017-11-16T01:13:38.034Z,0
2017-11-16T01:14:18.477Z,0
2017-11-16T01:14:58.868Z,0
2017-11-16T01:15:39.221Z,0
2017-11-16T01:16:19.705Z,0
2017-11-16T01:17:00.074Z,0
2017-11-16T01:17:40.488Z,0
2017-11-16T01:18:20.936Z,0
2017-11-16T01:19:01.282Z,0
2017-11-16T01:19:41.726Z,0
2017-11-16T01:20:22.069Z,0
2017-11-16T01:21:02.491Z,0
2017-11-16T01:21:42.976Z,0
2017-11-16T01:22:23.456Z,0
2017-11-16T01:23:03.811Z,0
2017-11-16T01:23:44.205Z,0
2017-11-16T01:24:24.639Z,0
2017-11-16T01:25:04.949Z,0
2017-11-16T01:25:45.417Z,0
2017-11-16T01:26:25.821Z,0
2017-11-16T01:27:06.189Z,0
2017-11-16T01:27:46.674Z,0
2017-11-16T01:28:27.127Z,0
2017-11-16T01:29:07.469Z,0
2017-11-16T01:29:47.863Z,0
2017-11-16T01:30:28.243Z,0
2017-11-16T01:31:08.699Z,0
2017-11-16T01:31:49.149Z,0
2017-11-16T01:32:29.535Z,0
2017-11-16T01:33:09.978Z,0
2017-11-16T01:33:50.336Z,0
2017-11-16T01:34:30.738Z,0
2017-11-16T01:35:11.145Z,0
2017-11-16T01:35:51.608Z,0
2017-11-16T01:36:31.991Z,0
2017-11-16T01:37:12.432Z,0
2017-11-16T01:37:52.893Z,0
2017-11-16T01:38:33.367Z,0
2017-11-16T01:39:13.760Z,0
2017-11-16T01:39:54.199Z,0
2017-11-16T01:40:34.704Z,0
2017-11-16T01:41:15.012Z,0
2017-11-16T01:41:55.441Z,0
2017-11-16T01:42:35.817Z,0
2017-11-16T01:43:16.306Z,0
2017-11-16T01:43:56.622Z,0
2017-11-16T01:44:37.101Z,0
2017-11-16T01:45:17.524Z,0
2017-11-16T01:45:57.825Z,0
2017-11-16T01:46:38.235Z,0
2017-11-16T01:47:18.731Z,0
2017-11-16T01:47:59.087Z,0
2017-11-16T01:48:39.526Z,0
2017-11-16T01:49:19.899Z,0
2017-11-16T01:50:00.296Z,0
2017-11-16T01:50:40.638Z,0
2017-11-16T01:51:21.188Z,0
2017-11-16T01:52:01.728Z,0
2017-11-16T01:52:42.026Z,0
2017-11-16T01:53:22.433Z,0
2017-11-16T01:54:02.822Z,0
2017-11-16T01:54:43.238Z,0
2017-11-16T01:55:23.678Z,0
2017-11-16T01:56:04.099Z,0
2017-11-16T01:56:44.663Z,0
2017-11-16T01:57:25.039Z,0
2017-11-16T01:58:05.552Z,0
2017-11-16T01:58:45.856Z,0
2017-11-16T01:59:26.331Z,0
2017-11-16T02:00:06.726Z,0
2017-11-16T02:00:47.263Z,0
2017-11-16T02:01:27.814Z,0
2017-11-16T02:02:08.234Z,0
2017-11-16T02:02:48.635Z,0
2017-11-16T02:03:28.976Z,0
2017-11-16T02:04:09.410Z,0
2017-11-16T02:04:49.870Z,0
2017-11-16T02:05:30.393Z,0
2017-11-16T02:06:10.678Z,0
2017-11-16T02:06:51.115Z,0
2017-11-16T02:07:31.563Z,0
2017-11-16T02:08:12.005Z,0
2017-11-16T02:08:52.405Z,0
2017-11-16T02:09:32.854Z,0
2017-11-16T02:10:13.204Z,0
2017-11-16T02:10:53.590Z,0
2017-11-16T02:11:33.991Z,0
2017-11-16T02:12:14.479Z,0
2017-11-16T02:12:54.860Z,0
2017-11-16T02:13:35.216Z,0
2017-11-16T02:14:15.658Z,0
2017-11-16T02:14:56.098Z,0
2017-11-16T02:15:36.414Z,0
2017-11-16T02:16:16.941Z,0
2017-11-16T02:16:57.224Z,0
2017-11-16T02:17:37.722Z,0
2017-11-16T02:18:18.176Z,0
2017-11-16T02:18:58.573Z,0
2017-11-16T02:19:38.970Z,0
2017-11-16T02:20:19.457Z,0
2017-11-16T02:20:59.899Z,0
2017-11-16T02:21:40.307Z,0
2017-11-16T02:22:20.792Z,0
2017-11-16T02:23:01.179Z,0
2017-11-16T02:23:41.622Z,0
2017-11-16T02:24:22.152Z,0
2017-11-16T02:25:02.577Z,0
2017-11-16T02:25:43.071Z,0
2017-11-16T02:26:23.467Z,0
2017-11-16T02:27:03.889Z,0
2017-11-16T02:27:44.322Z,0
2017-11-16T02:28:24.757Z,0
2017-11-16T02:29:05.266Z,0
2017-11-16T02:29:45.521Z,0
2017-11-16T02:30:26.027Z,0
2017-11-16T02:31:06.436Z,0
2017-11-16T02:31:46.788Z,0
2017-11-16T02:32:27.188Z,0
2017-11-16T02:33:07.601Z,0
2017-11-16T02:33:48.188Z,0
2017-11-16T02:34:28.664Z,0
2017-11-16T02:35:09.024Z,0
2017-11-16T02:35:49.558Z,0
2017-11-16T02:36:29.982Z,0
2017-11-16T02:37:10.392Z,0
2017-11-16T02:37:50.769Z,0
2017-11-16T02:38:31.245Z,0
2017-11-16T02:39:11.606Z,0
2017-11-16T02:39:52.025Z,0
2017-11-16T02:40:32.324Z,0
2017-11-16T02:41:12.837Z,0
2017-11-16T02:41:53.189Z,0
2017-11-16T02:42:33.682Z,0
2017-11-16T02:43:13.999Z,0
2017-11-16T02:43:54.401Z,0
2017-11-16T02:44:34.795Z,0
2017-11-16T02:45:15.240Z,0
2017-11-16T02:45:55.700Z,0
2017-11-16T02:46:36.189Z,0
2017-11-16T02:47:16.545Z,0
2017-11-16T02:47:56.927Z,0
2017-11-16T02:48:37.359Z,0
2017-11-16T02:49:17.756Z,0
2017-11-16T02:49:58.092Z,0
2017-11-16T02:50:38.621Z,0
2017-11-16T02:51:18.977Z,0
2017-11-16T02:51:59.464Z,0
2017-11-16T02:52:39.858Z,0
2017-11-16T02:53:20.357Z,0
2017-11-16T02:54:00.762Z,0
2017-11-16T02:54:41.220Z,0
2017-11-16T02:55:21.629Z,0
2017-11-16T02:56:02.109Z,0
2017-11-16T02:56:42.458Z,0
2017-11-16T02:57:22.969Z,0
2017-11-16T02:58:03.310Z,0
2017-11-16T02:58:43.768Z,0
2017-11-16T02:59:24.118Z,0
2017-11-16T03:00:04.565Z,0
2017-11-16T03:00:44.904Z,0
2017-11-16T03:01:25.293Z,0
2017-11-16T03:02:05.717Z,0
2017-11-16T03:02:46.072Z,0
2017-11-16T03:03:26.484Z,0
2017-11-16T03:04:06.880Z,0
2017-11-16T03:04:47.385Z,0
2017-11-16T03:05:27.821Z,0
2017-11-16T03:06:08.219Z,0
2017-11-16T03:06:48.668Z,0
2017-11-16T03:07:29.120Z,0
2017-11-16T03:08:09.576Z,0
2017-11-16T03:08:49.999Z,0
2017-11-16T03:09:30.493Z,0
2017-11-16T03:10:10.989Z,0
2017-11-16T03:10:51.230Z,0
2017-11-16T03:11:31.758Z,0
2017-11-16T03:12:12.221Z,0
2017-11-16T03:12:52.670Z,0
2017-11-16T03:13:33.044Z,0
2017-11-16T03:14:13.459Z,0
2017-11-16T03:14:53.903Z,0
2017-11-16T03:15:34.387Z,0
2017-11-16T03:16:14.756Z,0
2017-11-16T03:16:55.097Z,0
2017-11-16T03:17:35.607Z,0
2017-11-16T03:18:16.122Z,0
2017-11-16T03:18:56.520Z,0
2017-11-16T03:19:36.829Z,0
2017-11-16T03:20:17.336Z,0
2017-11-16T03:20:57.990Z,0
2017-11-16T03:21:38.208Z,0
2017-11-16T03:22:18.725Z,0
2017-11-16T03:22:59.135Z,0
2017-11-16T03:23:39.580Z,0
2017-11-16T03:24:20.044Z,0
2017-11-16T03:25:00.463Z,0
2017-11-16T03:25:40.925Z,0
2017-11-16T03:26:21.236Z,0
2017-11-16T03:27:01.649Z,0
2017-11-16T03:27:42.110Z,0
2017-11-16T03:28:22.536Z,0
2017-11-16T03:29:03.001Z,0
2017-11-16T03:29:43.278Z,0
2017-11-16T03:30:23.858Z,0
2017-11-16T03:31:04.199Z,0
2017-11-16T03:31:44.541Z,0
2017-11-16T03:32:25.054Z,0
2017-11-16T03:33:05.431Z,0
2017-11-16T03:33:45.821Z,0
2017-11-16T03:34:26.414Z,0
2017-11-16T03:35:06.830Z,0
2017-11-16T03:35:47.197Z,0
2017-11-16T03:36:27.589Z,0
2017-11-16T03:37:08.008Z,0
2017-11-16T03:37:48.486Z,0
2017-11-16T03:38:28.963Z,0
2017-11-16T03:39:09.234Z,0
2017-11-16T03:39:49.720Z,0
2017-11-16T03:40:30.166Z,0
2017-11-16T03:41:10.575Z,0
2017-11-16T03:41:50.954Z,0
2017-11-16T03:42:31.383Z,0
2017-11-16T03:43:11.803Z,0
2017-11-16T03:43:52.192Z,0
2017-11-16T03:44:32.608Z,0
2017-11-16T03:45:12.971Z,0
2017-11-16T03:45:53.332Z,0
2017-11-16T03:46:33.844Z,0
2017-11-16T03:47:14.129Z,0
2017-11-16T03:47:54.579Z,0
2017-11-16T03:48:34.976Z,0
2017-11-16T03:49:15.383Z,0
2017-11-16T03:49:55.852Z,0
2017-11-16T03:50:36.285Z,0
2017-11-16T03:51:16.688Z,0
2017-11-16T03:51:57.108Z,0
2017-11-16T03:52:37.645Z,0
2017-11-16T03:53:18.159Z,0
2017-11-16T03:53:58.419Z,0
2017-11-16T03:54:38.867Z,0
2017-11-16T03:55:19.276Z,0
2017-11-16T03:55:59.659Z,0
2017-11-16T03:56:39.990Z,0
2017-11-16T03:57:20.581Z,0
2017-11-16T03:58:01.089Z,0
2017-11-16T03:58:41.546Z,0
2017-11-16T03:59:21.947Z,0
2017-11-16T04:00:02.496Z,0
2017-11-16T04:00:42.991Z,0
2017-11-16T04:01:23.288Z,0
2017-11-16T04:02:03.653Z,0
2017-11-16T05:11:03.828Z,0
2017-11-16T05:11:44.337Z,0
2017-11-16T05:12:24.620Z,0
2017-11-16T05:13:05.048Z,0
2017-11-16T05:13:45.484Z,0
2017-11-16T05:14:25.895Z,0
2017-11-16T05:15:06.256Z,0
2017-11-16T05:15:46.742Z,0
2017-11-16T05:16:27.346Z,0
2017-11-16T05:17:07.687Z,0
2017-11-16T05:17:48.068Z,0
2017-11-16T05:18:28.576Z,0
2017-11-16T05:19:08.999Z,0
2017-11-16T05:19:49.364Z,0
2017-11-16T05:20:29.823Z,0
2017-11-16T05:21:10.218Z,0
2017-11-16T05:21:50.769Z,0
2017-11-16T05:22:31.165Z,0
2017-11-16T05:23:11.620Z,0
2017-11-16T05:23:52.094Z,0
2017-11-16T05:24:32.557Z,0
2017-11-16T05:25:12.907Z,0
2017-11-16T05:25:53.306Z,0
2017-11-16T05:26:33.685Z,0
2017-11-16T05:27:14.138Z,0
2017-11-16T05:27:54.553Z,0
2017-11-16T05:28:34.918Z,0
2017-11-16T05:29:15.358Z,0
2017-11-16T05:29:55.759Z,0
2017-11-16T05:30:36.196Z,0
2017-11-16T05:31:16.647Z,0
2017-11-16T05:31:57.030Z,0
2017-11-16T05:32:37.556Z,0
2017-11-16T05:33:18.059Z,0
2017-11-16T05:33:58.402Z,0
2017-11-16T05:34:38.894Z,0
2017-11-16T05:35:19.259Z,0
2017-11-16T05:35:59.720Z,0
2017-11-16T05:36:40.079Z,0
2017-11-16T05:37:20.592Z,0
2017-11-16T05:38:01.147Z,0
2017-11-16T05:38:41.681Z,0
2017-11-16T05:39:22.273Z,0
2017-11-16T05:40:02.759Z,0
2017-11-16T05:40:43.504Z,0
2017-11-16T05:41:25.223Z,0
2017-11-16T05:42:05.142Z,0
2017-11-16T05:42:50.472Z,0
2017-11-16T05:43:30.942Z,0
2017-11-16T05:44:11.582Z,0
2017-11-16T05:44:52.336Z,0
2017-11-16T05:45:32.839Z,0
2017-11-16T05:46:13.356Z,0
2017-11-16T05:46:53.562Z,0
2017-11-16T05:47:34.098Z,0
2017-11-16T05:48:14.480Z,0
2017-11-16T05:48:54.945Z,0
2017-11-16T05:49:35.452Z,0
2017-11-16T05:50:15.959Z,0
2017-11-16T05:50:56.471Z,0
2017-11-16T05:51:36.817Z,0
2017-11-16T05:52:17.316Z,0
2017-11-16T05:52:57.868Z,0
2017-11-16T05:53:38.163Z,0
2017-11-16T05:54:18.649Z,0
2017-11-16T05:54:58.960Z,0
2017-11-16T05:55:39.508Z,0
2017-11-16T05:56:19.861Z,0
2017-11-16T05:57:00.222Z,0
2017-11-16T05:57:40.666Z,0
2017-11-16T05:58:21.105Z,0
2017-11-16T05:59:02.188Z,0
2017-11-16T05:59:42.818Z,0
2017-11-16T06:00:23.158Z,0
2017-11-16T06:01:03.821Z,0
2017-11-16T06:01:44.082Z,0
2017-11-16T06:02:24.616Z,0
2017-11-16T06:03:04.984Z,0
2017-11-16T06:03:45.755Z,0
2017-11-16T06:04:26.293Z,0
2017-11-16T06:05:06.867Z,0
2017-11-16T06:05:47.169Z,0
2017-11-16T06:06:27.612Z,0
2017-11-16T06:07:08.076Z,0
2017-11-16T06:07:48.789Z,0
2017-11-16T06:08:29.086Z,0
2017-11-16T06:09:09.658Z,0
2017-11-16T06:09:50.165Z,0
2017-11-16T06:10:30.718Z,0
2017-11-16T06:11:11.070Z,0
2017-11-16T06:11:52.008Z,0
2017-11-16T06:12:32.438Z,0
2017-11-16T06:13:13.024Z,0
2017-11-16T06:13:53.439Z,0
2017-11-16T06:14:33.983Z,0
2017-11-16T06:15:14.485Z,0
2017-11-16T06:15:54.865Z,0
2017-11-16T06:16:35.398Z,0
2017-11-16T06:17:15.774Z,0
2017-11-16T06:17:56.313Z,0
2017-11-16T06:18:36.891Z,0
2017-11-16T06:19:17.199Z,0
2017-11-16T06:19:57.564Z,0
2017-11-16T06:20:38.003Z,0
2017-11-16T06:21:18.610Z,0
2017-11-16T06:21:59.082Z,0
2017-11-16T06:22:39.545Z,0
2017-11-16T06:23:20.009Z,0
2017-11-16T06:24:00.494Z,0
2017-11-16T06:24:41.057Z,0
2017-11-16T06:25:21.556Z,0
2017-11-16T06:26:02.131Z,0
2017-11-16T06:26:42.694Z,0
2017-11-16T06:27:22.993Z,0
2017-11-16T06:28:03.382Z,0
2017-11-16T06:28:43.864Z,0
2017-11-16T06:29:24.286Z,0
2017-11-16T06:30:04.722Z,0
2017-11-16T06:30:45.057Z,0
2017-11-16T06:31:26.564Z,0
2017-11-16T06:32:06.893Z,0
2017-11-16T06:32:47.350Z,0
2017-11-16T06:33:28.247Z,0
2017-11-16T06:34:08.784Z,0
2017-11-16T06:34:49.630Z,0
2017-11-16T06:35:29.812Z,0
2017-11-16T06:36:10.448Z,0
2017-11-16T06:36:51.390Z,0
2017-11-16T06:37:31.482Z,0
2017-11-16T06:38:13.986Z,0
2017-11-16T06:38:54.404Z,0
2017-11-16T06:39:34.817Z,0
2017-11-16T06:40:15.368Z,0
2017-11-16T06:40:55.826Z,0
2017-11-16T06:41:36.322Z,0
2017-11-16T06:42:16.905Z,0
2017-11-16T06:42:57.346Z,0
2017-11-16T06:43:38.687Z,0
2017-11-16T06:44:19.665Z,0
2017-11-16T06:45:00.242Z,0
2017-11-16T06:45:40.802Z,0
2017-11-16T06:46:21.360Z,0
2017-11-16T06:47:02.058Z,0
2017-11-16T06:47:42.478Z,0
2017-11-16T06:48:23.519Z,0
2017-11-16T06:49:04.097Z,0
2017-11-16T06:49:44.520Z,0
2017-11-16T06:50:25.033Z,0
2017-11-16T06:51:05.437Z,0
2017-11-16T06:51:45.865Z,0
2017-11-16T06:52:26.362Z,0
2017-11-16T06:53:06.841Z,0
2017-11-16T06:53:47.395Z,0
2017-11-16T06:54:28.028Z,0
2017-11-16T06:55:09.182Z,0
2017-11-16T06:55:49.521Z,0
2017-11-16T06:56:30.014Z,0
2017-11-16T06:57:10.556Z,0
2017-11-16T06:57:51.059Z,0
2017-11-16T06:58:31.535Z,0
2017-11-16T06:59:12.267Z,0
2017-11-16T06:59:52.570Z,0
2017-11-16T07:00:33.138Z,0
2017-11-16T07:01:14.108Z,0
2017-11-16T07:01:54.576Z,0
2017-11-16T07:02:35.141Z,0
2017-11-16T07:03:15.719Z,0
2017-11-16T07:03:56.277Z,0
2017-11-16T07:04:36.731Z,0
2017-11-16T07:05:17.316Z,0
2017-11-16T07:05:57.694Z,0
2017-11-16T07:06:38.184Z,0
2017-11-16T07:07:18.646Z,0
2017-11-16T07:07:59.231Z,0
2017-11-16T07:08:39.635Z,0
2017-11-16T07:09:20.087Z,0
2017-11-16T07:10:00.592Z,0
2017-11-16T07:10:40.997Z,5
2017-11-16T07:11:21.550Z,5
2017-11-16T07:12:01.815Z,5
2017-11-16T07:12:42.464Z,5
2017-11-16T07:13:22.868Z,5
2017-11-16T07:14:03.265Z,5
2017-11-16T07:14:43.796Z,5
2017-11-16T07:15:24.576Z,5
2017-11-16T07:16:06.011Z,5
2017-11-16T07:16:46.601Z,5
2017-11-16T07:17:26.846Z,5
2017-11-16T07:18:07.610Z,5
2017-11-16T07:18:48.326Z,5
2017-11-16T07:19:28.792Z,5
2017-11-16T07:20:10.229Z,5
2017-11-16T07:20:50.577Z,5
2017-11-16T07:21:31.468Z,5
2017-11-16T07:22:12.948Z,5
2017-11-16T07:22:53.702Z,5
2017-11-16T07:23:34.658Z,5
2017-11-16T07:24:15.386Z,5
2017-11-16T07:24:55.829Z,5
2017-11-16T07:25:36.251Z,5
2017-11-16T07:26:17.392Z,5
2017-11-16T07:26:58.494Z,5
2017-11-16T07:27:39.928Z,5
2017-11-16T07:28:21.050Z,5
2017-11-16T07:29:01.417Z,5
2017-11-16T07:29:41.843Z,5
2017-11-16T07:30:22.822Z,5
2017-11-16T07:31:03.508Z,5
2017-11-16T07:31:43.747Z,5
2017-11-16T07:32:24.300Z,5
2017-11-16T07:33:04.819Z,5
2017-11-16T07:33:45.245Z,5
2017-11-16T07:34:25.824Z,5
2017-11-16T07:35:06.396Z,5
2017-11-16T07:35:46.726Z,5
2017-11-16T07:36:27.404Z,10
2017-11-16T07:37:07.904Z,10
2017-11-16T07:37:48.373Z,10
2017-11-16T07:38:28.779Z,10
2017-11-16T07:39:09.283Z,10
2017-11-16T07:39:49.690Z,10
2017-11-16T07:40:30.042Z,10
2017-11-16T07:41:11.023Z,10
2017-11-16T07:41:51.365Z,10
2017-11-16T07:42:31.888Z,10
2017-11-16T07:43:12.349Z,10
2017-11-16T07:43:52.881Z,10
2017-11-16T07:44:33.322Z,10
2017-11-16T07:45:13.709Z,10
2017-11-16T07:45:54.170Z,10
2017-11-16T07:46:34.769Z,10
2017-11-16T07:47:15.327Z,10
2017-11-16T07:47:55.590Z,10
2017-11-16T07:48:36.285Z,10
2017-11-16T07:49:16.548Z,10
2017-11-16T07:49:56.848Z,10
2017-11-16T07:50:37.381Z,10
2017-11-16T07:51:17.987Z,10
2017-11-16T07:51:58.396Z,10
2017-11-16T07:58:05.239Z,15
2017-11-16T07:58:46.005Z,15
2017-11-16T07:59:26.500Z,15
2017-11-16T08:00:06.987Z,15
2017-11-16T08:00:47.408Z,15
2017-11-16T08:01:28.576Z,10
2017-11-16T08:02:09.102Z,10
2017-11-16T08:02:49.598Z,10
2017-11-16T08:03:30.204Z,10
2017-11-16T08:04:10.512Z,10
2017-11-16T08:04:51.167Z,10
2017-11-16T08:05:31.699Z,10
2017-11-16T08:06:12.056Z,10
2017-11-16T08:06:53.359Z,10
2017-11-16T08:07:34.076Z,10
2017-11-16T08:08:14.603Z,10
2017-11-16T08:08:55.123Z,10
2017-11-16T08:09:35.607Z,15
2017-11-16T08:10:16.170Z,15
2017-11-16T08:10:56.587Z,15
2017-11-16T08:11:37.154Z,15
2017-11-16T08:12:17.613Z,15
2017-11-16T08:12:58.059Z,15
2017-11-16T08:13:38.761Z,15
2017-11-16T08:14:19.225Z,15
2017-11-16T08:14:59.609Z,15
2017-11-16T08:15:40.096Z,10
2017-11-16T08:16:20.511Z,10
2017-11-16T08:17:00.947Z,10
2017-11-16T08:17:41.454Z,10
2017-11-16T08:18:22.076Z,10
2017-11-16T08:19:02.568Z,10
2017-11-16T08:19:42.983Z,10
2017-11-16T08:20:23.415Z,10
2017-11-16T08:21:03.805Z,10
2017-11-16T08:21:44.660Z,10
2017-11-16T08:22:24.986Z,5
2017-11-16T08:23:05.445Z,5
2017-11-16T08:23:46.332Z,5
2017-11-16T08:24:26.819Z,5
2017-11-16T08:25:09.205Z,5
2017-11-16T08:25:49.405Z,5
2017-11-16T08:26:34.664Z,5
2017-11-16T08:27:14.230Z,5
2017-11-16T08:27:55.553Z,5
2017-11-16T08:28:37.141Z,5
2017-11-16T08:29:17.095Z,5
2017-11-16T08:29:57.839Z,5
2017-11-16T08:30:38.539Z,5
2017-11-16T08:31:18.775Z,5
2017-11-16T08:31:59.131Z,5
2017-11-16T08:32:40.163Z,5
2017-11-16T08:33:21.827Z,5
2017-11-16T08:34:02.675Z,5
2017-11-16T08:34:43.187Z,5
2017-11-16T08:35:23.219Z,5
2017-11-16T08:36:03.823Z,5
2017-11-16T08:36:45.061Z,5
2017-11-16T08:37:27.087Z,5
2017-11-16T08:38:07.706Z,5
2017-11-16T08:38:48.536Z,5
2017-11-16T08:39:29.049Z,5
2017-11-16T08:40:09.538Z,5
2017-11-16T08:40:50.141Z,5
2017-11-16T08:41:30.593Z,5
2017-11-16T08:42:10.997Z,5
2017-11-16T08:42:52.000Z,5
2017-11-16T08:43:32.518Z,5
2017-11-16T08:44:12.870Z,5
2017-11-16T08:44:54.142Z,5
2017-11-16T08:45:34.097Z,5
2017-11-16T08:46:14.679Z,5
2017-11-16T08:46:55.782Z,5
2017-11-16T08:47:37.085Z,5
2017-11-16T08:48:17.883Z,5
2017-11-16T08:48:58.424Z,5
2017-11-16T08:49:38.993Z,5
2017-11-16T08:50:19.296Z,5
2017-11-16T08:50:59.730Z,5
2017-11-16T08:51:40.450Z,5
2017-11-16T08:52:21.024Z,5
2017-11-16T08:53:01.444Z,5
2017-11-16T08:53:42.486Z,5
2017-11-16T08:54:22.810Z,5
2017-11-16T08:55:03.371Z,5
2017-11-16T08:55:43.963Z,5
2017-11-16T08:56:24.309Z,5
2017-11-16T08:57:04.953Z,5
2017-11-16T08:57:45.422Z,5
2017-11-16T08:58:25.765Z,5
2017-11-16T08:59:06.720Z,5
2017-11-16T08:59:47.346Z,5
2017-11-16T09:00:27.607Z,5
2017-11-16T09:01:08.236Z,5
2017-11-16T09:01:49.145Z,5
2017-11-16T09:02:29.117Z,5
2017-11-16T09:03:10.085Z,5
2017-11-16T09:03:50.730Z,5
2017-11-16T09:04:31.100Z,5
2017-11-16T09:11:27.276Z,5
2017-11-16T09:12:07.641Z,5
2017-11-16T09:12:48.134Z,5
2017-11-16T09:13:28.569Z,5
2017-11-16T09:14:08.960Z,5
2017-11-16T09:14:49.446Z,5
2017-11-16T09:15:29.830Z,5
2017-11-16T09:16:10.290Z,5
2017-11-16T09:16:50.733Z,5
2017-11-16T09:17:31.109Z,5
2017-11-16T09:18:11.653Z,5
2017-11-16T09:18:52.158Z,5
2017-11-16T09:19:33.677Z,5
2017-11-16T09:20:14.137Z,10
2017-11-16T09:20:54.587Z,10
2017-11-16T09:21:36.826Z,10
2017-11-16T09:22:17.312Z,10
2017-11-16T09:22:57.853Z,10
2017-11-16T09:23:38.186Z,10
2017-11-16T09:24:19.806Z,10
2017-11-16T09:25:01.071Z,10
2017-11-16T09:25:41.467Z,10
2017-11-16T09:26:22.568Z,10
2017-11-16T09:27:03.007Z,10
2017-11-16T09:27:46.004Z,10
2017-11-16T09:28:27.065Z,10
2017-11-16T09:29:07.302Z,10
2017-11-16T09:29:47.970Z,10
2017-11-16T09:30:28.616Z,10
2017-11-16T09:31:09.037Z,10
2017-11-16T09:31:49.453Z,10
2017-11-16T09:32:30.197Z,15
2017-11-16T09:33:10.655Z,15
2017-11-16T09:33:51.152Z,15
2017-11-16T09:34:31.614Z,15
2017-11-16T09:35:17.684Z,15
2017-11-16T09:35:57.989Z,20
2017-11-16T09:36:38.687Z,20
2017-11-16T09:37:20.697Z,20
2017-11-16T09:38:01.731Z,20
2017-11-16T09:38:42.241Z,25
2017-11-16T09:39:22.734Z,25
2017-11-16T09:40:03.098Z,30
2017-11-16T09:40:43.505Z,30
2017-11-16T09:41:23.954Z,30
2017-11-16T09:42:07.993Z,35
2017-11-16T09:42:51.073Z,35
2017-11-16T09:43:31.680Z,35
2017-11-16T09:44:12.225Z,35
2017-11-16T09:44:52.610Z,35
2017-11-16T09:45:32.972Z,35
2017-11-16T09:46:13.504Z,35
2017-11-16T09:46:54.031Z,40
2017-11-16T09:47:36.564Z,50
2017-11-16T09:48:20.243Z,45
2017-11-16T09:49:00.700Z,50
2017-11-16T09:49:41.178Z,55
2017-11-16T09:50:22.120Z,55
2017-11-16T09:51:02.589Z,60
2017-11-16T09:51:43.275Z,55
2017-11-16T09:52:23.930Z,55
2017-11-16T09:53:04.538Z,55
2017-11-16T09:53:44.980Z,55
2017-11-16T09:54:25.646Z,55
2017-11-16T09:55:06.032Z,55
2017-11-16T09:55:46.545Z,55
2017-11-16T09:56:27.058Z,50
2017-11-16T09:57:09.498Z,45
2017-11-16T09:57:49.960Z,45
2017-11-16T09:58:30.449Z,50
2017-11-16T09:59:10.989Z,50
2017-11-16T09:59:51.452Z,50
2017-11-16T10:00:31.769Z,45
2017-11-16T10:01:16.391Z,45
2017-11-16T10:01:55.991Z,45
2017-11-16T10:02:36.602Z,45
2017-11-16T10:03:18.061Z,45
2017-11-16T10:49:26.897Z,55
2017-11-16T10:50:07.478Z,55
2017-11-16T10:50:47.989Z,60
2017-11-16T10:51:28.816Z,60
2017-11-16T10:52:09.649Z,60
2017-11-16T10:52:51.887Z,60
2017-11-16T10:53:36.163Z,60
2017-11-16T10:54:17.181Z,55
2017-11-16T10:55:00.918Z,50
2017-11-16T10:59:14.441Z,45
2017-11-16T11:11:17.052Z,45
2017-11-16T11:12:15.409Z,45
2017-11-16T11:12:55.848Z,40
2017-11-16T11:13:36.214Z,40
2017-11-16T11:14:16.682Z,40
2017-11-16T11:14:57.224Z,40
2017-11-16T11:15:37.859Z,40
2017-11-16T11:16:18.500Z,40
2017-11-16T11:16:58.973Z,40
2017-11-16T11:17:39.425Z,40
2017-11-16T11:20:38.290Z,35
2017-11-16T11:29:31.723Z,30
2017-11-16T11:30:25.065Z,25
2017-11-16T11:31:06.077Z,25
2017-11-16T11:31:47.940Z,25
2017-11-16T11:32:31.460Z,25
2017-11-16T11:33:18.730Z,25
2017-11-16T11:34:04.603Z,25
2017-11-16T11:34:45.759Z,25
2017-11-16T11:35:26.519Z,25
2017-11-16T11:36:09.310Z,25
2017-11-16T11:36:51.588Z,25
2017-11-16T11:37:33.256Z,25
2017-11-16T11:38:14.543Z,25
2017-11-16T11:38:55.559Z,25
2017-11-16T11:39:36.327Z,25
2017-11-16T11:40:16.830Z,25
2017-11-16T11:40:57.729Z,25
2017-11-16T11:41:38.352Z,25
2017-11-16T11:42:20.864Z,25
2017-11-16T11:43:02.006Z,25
2017-11-16T11:43:44.126Z,25
2017-11-16T11:44:24.676Z,25
2017-11-16T11:45:05.148Z,25
2017-11-16T11:45:46.893Z,25
2017-11-16T11:46:26.941Z,25
2017-11-16T11:47:07.806Z,25
2017-11-16T11:47:48.430Z,30
2017-11-16T11:48:28.846Z,30
2017-11-16T11:49:09.360Z,30
2017-11-16T11:49:50.190Z,30
2017-11-16T11:50:30.481Z,30
2017-11-16T11:51:10.974Z,30
2017-11-16T11:51:52.646Z,30
2017-11-16T11:52:33.209Z,30
2017-11-16T11:53:13.668Z,30
2017-11-16T11:53:54.046Z,30
2017-11-16T11:54:34.615Z,30
2017-11-16T11:55:15.815Z,30
2017-11-16T11:55:56.137Z,30
2017-11-16T11:56:37.056Z,30
2017-11-16T11:57:17.569Z,30
2017-11-16T11:57:58.198Z,30
2017-11-16T11:58:38.602Z,30
2017-11-16T11:59:19.614Z,30
2017-11-16T11:59:59.605Z,30
2017-11-16T12:00:40.168Z,30
2017-11-16T12:01:20.787Z,30
2017-11-16T12:02:01.449Z,30
2017-11-16T12:02:43.068Z,30
2017-11-16T12:03:23.772Z,30
2017-11-16T12:04:04.498Z,35
2017-11-16T12:04:45.184Z,35
2017-11-16T12:05:25.673Z,40
2017-11-16T12:06:06.442Z,40
2017-11-16T12:06:47.355Z,40
2017-11-16T12:07:27.692Z,40
2017-11-16T12:08:08.410Z,35
2017-11-16T12:08:48.769Z,40
2017-11-16T12:09:29.605Z,35
2017-11-16T12:10:11.457Z,40
2017-11-16T12:10:56.565Z,40
2017-11-16T12:11:39.173Z,40
2017-11-16T12:12:19.699Z,40
2017-11-16T12:12:59.876Z,40
2017-11-16T12:13:40.604Z,40
2017-11-16T12:14:21.264Z,40
2017-11-16T12:15:04.232Z,40
2017-11-16T12:15:44.976Z,40
2017-11-16T12:16:25.786Z,45
2017-11-16T12:17:06.286Z,35
2017-11-16T12:17:46.786Z,40
2017-11-16T12:18:27.452Z,40
2017-11-16T12:19:11.778Z,40
2017-11-16T12:19:50.845Z,45
2017-11-16T12:20:32.818Z,40
2017-11-16T12:21:13.376Z,35
2017-11-16T12:21:53.992Z,40
2017-11-16T12:22:34.986Z,45
2017-11-16T12:25:37.733Z,35
2017-11-16T12:26:18.541Z,35
2017-11-16T12:27:01.551Z,35
2017-11-16T12:36:36.614Z,35
2017-11-16T12:37:34.442Z,35